createdAt,value
2023-07-09T00:02:16.838Z,1.00
2023-07-09T00:07:34.228Z,1.00
2023-07-09T00:12:36.741Z,1.00
2023-07-09T00:17:40.953Z,41.30
2023-07-09T00:22:53.040Z,99.90
2023-07-09T00:27:55.532Z,99.90
2023-07-09T00:32:59.564Z,99.90
2023-07-09T00:38:02.088Z,99.90
2023-07-09T00:43:15.909Z,1.00
2023-07-09T00:48:18.921Z,1.00
2023-07-09T00:53:30.787Z,1.00
2023-07-09T00:58:36.320Z,1.00
2023-07-09T01:03:50.496Z,1.00
2023-07-09T01:08:54.613Z,1.00
2023-07-09T01:14:02.217Z,61.60
2023-07-09T01:19:06.892Z,1.00
2023-07-09T01:24:47.830Z,99.90
2023-07-09T01:29:51.028Z,98.10
2023-07-09T01:34:57.031Z,99.90
2023-07-09T01:39:59.483Z,99.90
2023-07-09T01:45:05.266Z,1.00
2023-07-09T01:50:09.102Z,1.00
2023-07-09T01:55:14.388Z,1.00
2023-07-09T02:00:17.729Z,1.00
2023-07-09T02:05:21.032Z,1.00
2023-07-09T02:10:23.703Z,1.00
2023-07-09T02:15:26.484Z,1.00
2023-07-09T02:20:28.983Z,1.00
2023-07-09T02:25:31.478Z,94.50
2023-07-09T02:30:33.962Z,99.90
2023-07-09T02:35:37.295Z,1.00
2023-07-09T02:40:40.325Z,1.00
2023-07-09T02:45:42.804Z,1.00
2023-07-09T02:50:45.241Z,1.00
2023-07-09T02:55:47.792Z,1.00
2023-07-09T03:00:54.038Z,1.00
2023-07-09T03:05:56.642Z,1.00
2023-07-09T03:10:59.595Z,1.00
2023-07-09T03:16:02.392Z,1.00
2023-07-09T03:21:05.433Z,1.00
2023-07-09T03:26:07.930Z,1.00
2023-07-09T03:31:10.749Z,1.00
2023-07-09T03:36:13.740Z,1.00
2023-07-09T03:41:16.690Z,1.00
2023-07-09T03:46:19.231Z,1.00
2023-07-09T03:51:21.652Z,1.00
2023-07-09T03:56:24.486Z,1.00
2023-07-09T04:01:27.140Z,1.00
2023-07-09T04:06:30.069Z,1.00
2023-07-09T04:11:32.500Z,64.10
2023-07-09T04:16:34.991Z,1.00
2023-07-09T04:21:37.502Z,99.90
2023-07-09T04:26:40.195Z,99.90
2023-07-09T04:31:42.798Z,99.90
2023-07-09T04:36:45.591Z,23.60
2023-07-09T04:41:48.592Z,99.90
2023-07-09T04:46:51.125Z,23.50
2023-07-09T04:51:53.517Z,8.50
2023-07-09T04:56:57.198Z,1.00
2023-07-09T05:02:00.278Z,1.00
2023-07-09T05:07:02.800Z,1.00
2023-07-09T05:12:05.717Z,1.00
2023-07-09T05:17:09.032Z,1.00
2023-07-09T05:22:11.551Z,1.00
2023-07-09T05:27:13.953Z,1.00
2023-07-09T05:32:16.355Z,1.00
2023-07-09T05:37:18.990Z,1.00
2023-07-09T05:42:21.527Z,1.00
2023-07-09T05:47:24.257Z,1.00
2023-07-09T05:52:26.883Z,1.00
2023-07-09T05:57:29.337Z,1.00
2023-07-09T06:02:31.926Z,1.00
2023-07-09T06:07:34.408Z,1.00
2023-07-09T06:12:37.389Z,1.00
2023-07-09T06:17:40.004Z,1.00
2023-07-09T06:22:42.579Z,1.00
2023-07-09T06:27:44.990Z,1.00
2023-07-09T06:32:47.629Z,1.00
2023-07-09T06:37:50.372Z,1.00
2023-07-09T06:42:52.892Z,1.00
2023-07-09T06:48:02.644Z,1.00
2023-07-09T06:53:05.125Z,1.00
2023-07-09T06:58:07.836Z,1.00
2023-07-09T07:03:10.865Z,1.00
2023-07-09T07:08:17.132Z,1.00
2023-07-09T07:13:19.552Z,1.00
2023-07-09T07:18:22.112Z,1.00
2023-07-09T07:23:25.258Z,1.00
2023-07-09T07:28:27.772Z,1.00
2023-07-09T07:33:30.409Z,1.00
2023-07-09T07:38:33.247Z,1.00
2023-07-09T07:43:35.711Z,1.00
2023-07-09T07:48:38.170Z,1.00
2023-07-09T07:53:40.692Z,1.00
2023-07-09T07:58:43.114Z,1.00
2023-07-09T08:03:45.588Z,1.00
2023-07-09T08:08:48.334Z,1.00
2023-07-09T08:13:51.275Z,1.00
2023-07-09T08:18:53.851Z,1.00
2023-07-09T08:23:56.403Z,1.00
2023-07-09T08:28:58.845Z,1.00
2023-07-09T08:34:01.258Z,1.00
2023-07-09T08:39:07.765Z,1.00
2023-07-09T08:44:32.605Z,1.00
2023-07-09T08:50:06.595Z,1.00
2023-07-09T08:55:26.268Z,1.00
2023-07-09T09:00:43.267Z,1.00
2023-07-09T09:05:50.868Z,1.00
2023-07-09T09:11:16.045Z,1.00
2023-07-09T09:16:32.413Z,1.00
2023-07-09T09:21:37.951Z,1.00
2023-07-09T09:26:47.969Z,1.00
2023-07-09T09:31:56.377Z,1.00
2023-07-09T09:37:00.166Z,1.00
2023-07-09T09:42:02.865Z,1.00
2023-07-09T09:47:05.775Z,1.00
2023-07-09T09:52:19.551Z,1.00
2023-07-09T09:57:24.626Z,1.00
2023-07-09T10:02:27.169Z,1.00
2023-07-09T10:07:37.670Z,1.00
2023-07-09T10:12:56.259Z,1.00
2023-07-09T10:18:38.583Z,1.00
2023-07-09T10:24:09.898Z,1.00
2023-07-09T10:29:21.326Z,1.00
2023-07-09T10:34:30.152Z,1.00
2023-07-09T10:39:40.077Z,1.00
2023-07-09T10:44:47.933Z,1.00
2023-07-09T10:49:51.589Z,1.00
2023-07-09T10:55:01.949Z,99.90
2023-07-09T11:00:05.171Z,99.90
2023-07-09T11:05:11.424Z,99.90
2023-07-09T11:10:28.524Z,99.90
2023-07-09T11:15:36.151Z,99.90
2023-07-09T11:20:45.343Z,99.90
2023-07-09T11:26:09.121Z,99.90
2023-07-09T11:31:39.928Z,99.90
2023-07-09T11:36:56.419Z,99.90
2023-07-09T11:41:59.431Z,99.90
2023-07-09T11:47:20.397Z,99.90
2023-07-09T11:52:51.630Z,99.90
2023-07-09T11:58:05.139Z,99.90
2023-07-09T12:03:18.201Z,99.90
2023-07-09T12:08:30.085Z,99.90
2023-07-09T12:13:40.111Z,99.90
2023-07-09T12:18:44.664Z,99.90
2023-07-09T12:23:47.695Z,99.90
2023-07-09T12:28:54.957Z,99.90
2023-07-09T12:33:59.409Z,99.90
2023-07-09T12:39:04.066Z,99.90
2023-07-09T12:44:09.527Z,99.90
2023-07-09T12:49:26.613Z,99.90
2023-07-09T12:54:30.607Z,99.90
2023-07-09T12:59:41.133Z,99.90
2023-07-09T13:04:44.030Z,99.90
2023-07-09T13:09:53.926Z,99.90
2023-07-09T13:15:00.184Z,99.90
2023-07-09T13:20:03.300Z,99.90
2023-07-09T13:25:08.373Z,99.90
2023-07-09T13:30:11.155Z,99.90
2023-07-09T13:35:19.698Z,99.90
2023-07-09T13:40:22.163Z,99.90
2023-07-09T13:45:26.312Z,99.90
2023-07-09T13:50:29.048Z,99.90
2023-07-09T13:55:31.502Z,99.90
2023-07-09T14:00:34.073Z,99.90
2023-07-09T14:05:36.578Z,99.90
2023-07-09T14:10:39.614Z,99.90
2023-07-09T14:15:42.237Z,99.90
2023-07-09T14:20:45.395Z,99.90
2023-07-09T14:25:48.687Z,99.90
2023-07-09T14:30:52.152Z,99.90
2023-07-09T14:35:54.756Z,99.90
2023-07-09T14:41:00.962Z,99.90
2023-07-09T14:46:03.689Z,99.90
2023-07-09T14:51:15.971Z,99.90
2023-07-09T14:56:18.529Z,99.90
2023-07-09T15:01:22.456Z,99.90
2023-07-09T15:06:24.941Z,99.90
2023-07-09T15:11:27.399Z,99.90
2023-07-09T15:16:29.959Z,99.90
2023-07-09T15:21:32.499Z,99.90
2023-07-09T15:26:34.961Z,99.90
2023-07-09T15:31:37.443Z,99.90
2023-07-09T15:36:40.177Z,99.90
2023-07-09T15:41:42.980Z,99.90
2023-07-09T15:46:55.441Z,99.90
2023-07-09T15:51:58.882Z,99.90
2023-07-09T15:57:01.938Z,99.90
2023-07-09T16:02:15.367Z,99.90
2023-07-09T16:07:17.936Z,99.90
2023-07-09T16:12:20.484Z,99.90
2023-07-09T16:17:23.010Z,99.90
2023-07-09T16:22:25.524Z,99.90
2023-07-09T16:27:28.128Z,99.90
2023-07-09T16:32:30.582Z,99.90
2023-07-09T16:37:33.020Z,99.90
2023-07-09T16:42:36.024Z,99.90
2023-07-09T16:47:38.558Z,99.90
2023-07-09T16:52:41.596Z,99.90
2023-07-09T16:57:44.253Z,99.90
2023-07-09T17:02:46.916Z,99.90
2023-07-09T17:07:49.514Z,99.90
2023-07-09T17:12:58.699Z,99.90
2023-07-09T17:18:01.982Z,99.90
2023-07-09T17:23:04.510Z,99.90
2023-07-09T17:28:22.403Z,99.90
2023-07-09T17:33:25.215Z,99.90
2023-07-09T17:38:35.127Z,99.90
2023-07-09T17:43:39.168Z,99.90
2023-07-09T17:48:43.614Z,99.90
2023-07-09T17:53:46.268Z,99.90
2023-07-09T17:58:49.153Z,99.90
2023-07-09T18:03:51.696Z,99.90
2023-07-09T18:08:54.161Z,99.90
2023-07-09T18:13:56.935Z,99.90
2023-07-09T18:19:04.592Z,99.90
2023-07-09T18:24:07.085Z,99.90
2023-07-09T18:29:23.942Z,99.90
2023-07-09T18:34:26.365Z,99.90
2023-07-09T18:39:28.771Z,99.90
2023-07-09T18:44:31.323Z,99.90
2023-07-09T18:49:33.741Z,99.90
2023-07-09T18:54:36.283Z,99.90
2023-07-09T18:59:39.466Z,99.90
2023-07-09T19:04:41.968Z,99.90
2023-07-09T19:09:45.287Z,99.90
2023-07-09T19:14:47.703Z,99.90
2023-07-09T19:19:50.597Z,99.90
2023-07-09T19:24:53.065Z,99.90
2023-07-09T19:29:55.511Z,99.90
2023-07-09T19:34:57.961Z,99.90
2023-07-09T19:40:00.396Z,99.90
2023-07-09T19:45:02.900Z,99.90
2023-07-09T19:50:17.129Z,99.90
2023-07-09T19:55:28.698Z,1.00
2023-07-09T20:00:31.510Z,1.00
2023-07-09T20:05:34.006Z,1.00
2023-07-09T20:10:36.503Z,1.00
2023-07-09T20:15:39.524Z,1.00
2023-07-09T20:21:04.343Z,1.00
2023-07-09T20:26:07.192Z,1.00
2023-07-09T20:31:20.576Z,1.00
2023-07-09T20:36:23.257Z,1.00
2023-07-09T20:41:29.201Z,1.00
2023-07-09T20:46:31.730Z,1.00
2023-07-09T20:51:34.391Z,1.00
2023-07-09T20:56:37.335Z,1.00
2023-07-09T21:01:39.924Z,1.00
2023-07-09T21:06:43.001Z,1.00
2023-07-09T21:11:47.000Z,1.00
2023-07-09T21:16:50.472Z,1.00
2023-07-09T21:21:52.980Z,1.00
2023-07-09T21:26:57.583Z,1.00
2023-07-09T21:32:06.424Z,1.00
2023-07-09T21:37:18.176Z,1.00
2023-07-09T21:42:20.622Z,1.00
2023-07-09T21:47:24.500Z,1.00
2023-07-09T21:52:27.042Z,1.00
2023-07-09T21:57:29.745Z,1.00
2023-07-09T22:02:32.492Z,1.00
2023-07-09T22:07:35.034Z,48.30
2023-07-09T22:12:37.651Z,99.90
2023-07-09T22:17:40.137Z,99.90
2023-07-09T22:22:42.692Z,99.90
2023-07-09T22:27:45.838Z,1.00
2023-07-09T22:32:54.924Z,1.00
2023-07-09T22:37:58.540Z,1.00
2023-07-09T22:43:01.069Z,1.00
2023-07-09T22:48:05.966Z,1.00
2023-07-09T22:53:18.040Z,1.00
2023-07-09T22:58:22.032Z,1.00
2023-07-09T23:03:34.712Z,1.00
2023-07-09T23:08:37.238Z,1.00
2023-07-09T23:13:39.720Z,1.00
2023-07-09T23:18:48.556Z,1.00
2023-07-09T23:23:58.663Z,1.00
2023-07-09T23:29:01.577Z,4.10
2023-07-09T23:34:10.791Z,1.00
2023-07-09T23:39:13.976Z,1.00
2023-07-09T23:44:22.570Z,1.00
2023-07-09T23:49:27.744Z,1.00
2023-07-09T23:54:30.232Z,1.00
2023-07-09T23:59:35.911Z,1.00
